createdAt,value
2022-09-15T00:01:18.739Z,12.27
2022-09-15T00:06:41.139Z,12.21
2022-09-15T00:12:03.757Z,12.24
2022-09-15T00:17:27.008Z,12.32
2022-09-15T00:22:49.946Z,12.09
2022-09-15T00:28:12.038Z,12.35
2022-09-15T00:33:33.829Z,12.27
2022-09-15T00:38:56.450Z,12.18
2022-09-15T00:44:36.811Z,12.40
2022-09-15T00:50:06.018Z,12.40
2022-09-15T00:55:31.039Z,12.41
2022-09-15T01:00:57.698Z,12.38
2022-09-15T01:06:29.843Z,12.39
2022-09-15T01:11:52.370Z,12.38
2022-09-15T01:17:49.347Z,12.40
2022-09-15T01:23:50.821Z,12.38
2022-09-15T01:29:46.082Z,12.35
2022-09-15T01:35:22.838Z,12.37
2022-09-15T01:41:07.600Z,12.30
2022-09-15T01:46:33.852Z,12.32
2022-09-15T01:51:56.170Z,12.35
2022-09-15T01:57:22.634Z,12.34
2022-09-15T02:02:51.372Z,12.35
2022-09-15T02:08:25.620Z,12.29
2022-09-15T02:14:06.799Z,11.98
2022-09-15T02:19:37.300Z,12.24
2022-09-15T02:25:08.596Z,12.25
2022-09-15T02:30:33.051Z,12.22
2022-09-15T02:35:55.641Z,12.25
2022-09-15T02:41:17.799Z,12.23
2022-09-15T02:46:40.770Z,12.27
2022-09-15T02:52:03.271Z,12.12
2022-09-15T02:57:25.387Z,11.96
2022-09-15T03:02:52.850Z,12.21
2022-09-15T03:08:14.931Z,12.13
2022-09-15T03:13:43.261Z,12.23
2022-09-15T03:19:05.321Z,12.24
2022-09-15T03:24:27.780Z,12.23
2022-09-15T03:29:49.816Z,12.25
2022-09-15T03:35:11.672Z,12.27
2022-09-15T03:40:34.448Z,12.27
2022-09-15T03:45:57.205Z,12.30
2022-09-15T03:51:19.287Z,12.30
2022-09-15T03:56:41.430Z,12.33
2022-09-15T04:02:03.298Z,12.32
2022-09-15T04:07:25.601Z,12.30
2022-09-15T04:13:14.381Z,12.30
2022-09-15T04:18:37.018Z,12.22
2022-09-15T04:23:59.020Z,12.07
2022-09-15T04:29:23.643Z,12.16
2022-09-15T04:34:45.831Z,11.91
2022-09-15T04:40:10.853Z,12.16
2022-09-15T04:45:39.280Z,12.02
2022-09-15T04:51:06.754Z,11.92
2022-09-15T04:56:28.830Z,12.01
2022-09-15T05:01:58.417Z,12.32
2022-09-15T05:07:21.105Z,11.99
2022-09-15T05:12:43.261Z,12.03
2022-09-15T05:18:09.991Z,12.44
2022-09-15T05:23:32.690Z,12.23
2022-09-15T05:28:55.821Z,12.00
2022-09-15T05:34:18.399Z,12.29
2022-09-15T05:39:43.101Z,12.06
2022-09-15T05:45:08.628Z,12.22
2022-09-15T05:50:33.901Z,12.17
2022-09-15T05:56:01.081Z,12.24
2022-09-15T06:01:26.228Z,12.39
2022-09-15T06:06:51.800Z,12.31
2022-09-15T06:12:14.021Z,12.10
2022-09-15T06:17:38.378Z,12.37
2022-09-15T06:23:00.839Z,12.40
2022-09-15T06:28:24.400Z,12.35
2022-09-15T06:33:56.999Z,12.56
2022-09-15T06:39:20.421Z,12.27
2022-09-15T06:44:44.858Z,12.41
2022-09-15T06:50:07.401Z,12.38
2022-09-15T06:55:33.172Z,12.66
2022-09-15T07:01:06.541Z,12.67
2022-09-15T07:06:30.207Z,12.51
2022-09-15T07:11:54.975Z,12.75
2022-09-15T07:17:22.460Z,12.88
2022-09-15T07:22:44.871Z,12.95
2022-09-15T07:28:09.831Z,13.10
2022-09-15T07:33:37.702Z,13.12
2022-09-15T07:39:00.221Z,13.50
2022-09-15T07:44:27.272Z,13.22
2022-09-15T07:49:50.980Z,13.29
2022-09-15T07:55:13.876Z,13.76
2022-09-15T08:00:39.283Z,13.66
2022-09-15T08:06:03.473Z,13.45
2022-09-15T08:11:31.665Z,13.48
2022-09-15T08:17:05.212Z,13.41
2022-09-15T08:22:30.623Z,13.58
2022-09-15T08:27:54.741Z,13.73
2022-09-15T08:33:19.613Z,13.52
2022-09-15T08:38:47.100Z,13.59
2022-09-15T08:44:36.902Z,13.78
2022-09-15T08:50:24.251Z,13.76
2022-09-15T08:55:55.332Z,13.68
2022-09-15T09:02:00.210Z,13.62
2022-09-15T09:07:58.471Z,13.74
2022-09-15T09:13:52.758Z,13.75
2022-09-15T09:19:23.790Z,13.73
2022-09-15T09:24:49.219Z,13.55
2022-09-15T09:30:16.189Z,13.73
2022-09-15T09:35:46.973Z,13.38
2022-09-15T09:41:28.737Z,13.51
2022-09-15T09:46:56.965Z,13.55
2022-09-15T09:52:35.719Z,13.78
2022-09-15T09:58:15.026Z,13.96
2022-09-15T10:03:39.111Z,13.79
2022-09-15T10:09:19.220Z,13.94
2022-09-15T10:14:42.789Z,13.97
2022-09-15T10:20:20.006Z,14.03
2022-09-15T10:25:58.638Z,14.06
2022-09-15T10:31:32.164Z,14.04
2022-09-15T10:37:00.099Z,14.02
2022-09-15T10:42:41.599Z,13.97
2022-09-15T10:48:29.460Z,13.94
2022-09-15T10:54:00.328Z,13.94
2022-09-15T10:59:35.201Z,13.92
2022-09-15T11:05:29.030Z,13.87
2022-09-15T11:11:29.681Z,13.88
2022-09-15T11:17:09.100Z,13.51
2022-09-15T11:22:38.771Z,13.86
2022-09-15T11:28:20.995Z,13.69
2022-09-15T11:33:58.773Z,13.68
2022-09-15T11:39:25.027Z,13.69
2022-09-15T11:44:48.526Z,13.94
2022-09-15T11:50:20.093Z,13.99
2022-09-15T11:55:53.991Z,14.00
2022-09-15T12:01:21.299Z,13.82
2022-09-15T12:06:45.777Z,14.04
2022-09-15T12:12:21.510Z,14.03
2022-09-15T12:18:27.668Z,13.76
2022-09-15T12:24:08.589Z,14.17
2022-09-15T12:29:48.380Z,14.36
2022-09-15T12:35:18.859Z,14.58
2022-09-15T12:40:42.197Z,14.61
2022-09-15T12:46:05.111Z,14.54
2022-09-15T12:51:28.751Z,14.44
2022-09-15T12:56:55.488Z,14.40
2022-09-15T13:02:46.828Z,14.44
2022-09-15T13:08:38.470Z,14.41
2022-09-15T13:14:28.750Z,14.21
2022-09-15T13:20:08.912Z,14.00
2022-09-15T13:25:33.651Z,14.09
2022-09-15T13:31:24.800Z,14.16
2022-09-15T13:43:38.682Z,14.25
2022-09-15T13:49:43.931Z,14.22
2022-09-15T13:55:23.155Z,14.14
2022-09-15T14:00:59.820Z,14.08
2022-09-15T14:06:25.955Z,14.03
2022-09-15T14:11:54.713Z,13.94
2022-09-15T14:17:32.043Z,13.95
2022-09-15T14:22:54.366Z,13.69
2022-09-15T14:28:22.588Z,13.92
2022-09-15T14:33:52.178Z,13.90
2022-09-15T14:39:20.021Z,13.77
2022-09-15T14:50:31.850Z,13.69
2022-09-15T14:56:08.645Z,13.71
2022-09-15T15:01:41.078Z,13.62
2022-09-15T15:07:26.229Z,13.78
2022-09-15T15:13:05.962Z,13.16
2022-09-15T15:18:40.787Z,13.76
2022-09-15T15:24:19.203Z,13.63
2022-09-15T15:29:44.999Z,13.63
2022-09-15T15:35:18.479Z,13.66
2022-09-15T15:40:42.667Z,13.59
2022-09-15T15:46:07.284Z,13.51
2022-09-15T15:51:31.499Z,13.19
2022-09-15T15:56:54.811Z,13.30
2022-09-15T16:02:17.835Z,13.05
2022-09-15T16:07:41.230Z,13.30
2022-09-15T16:13:04.532Z,13.29
2022-09-15T16:18:32.472Z,13.03
2022-09-15T16:24:02.984Z,13.15
2022-09-15T16:29:36.871Z,12.82
2022-09-15T16:34:58.822Z,12.86
2022-09-15T16:40:21.187Z,12.91
2022-09-15T16:45:43.901Z,12.80
2022-09-15T16:51:29.542Z,12.81
2022-09-15T16:57:25.180Z,12.79
2022-09-15T17:03:02.130Z,12.49
2022-09-15T17:08:37.111Z,12.47
2022-09-15T17:14:05.936Z,12.50
2022-09-15T17:19:28.710Z,12.55
2022-09-15T17:24:51.392Z,12.57
2022-09-15T17:30:14.094Z,12.59
2022-09-15T17:35:37.814Z,12.48
2022-09-15T17:41:02.371Z,12.74
2022-09-15T17:46:24.652Z,12.68
2022-09-15T17:51:51.010Z,12.42
2022-09-15T17:57:19.382Z,12.07
2022-09-15T18:02:49.109Z,11.96
2022-09-15T18:08:13.461Z,12.13
2022-09-15T18:13:36.393Z,11.96
2022-09-15T18:25:38.581Z,12.07
2022-09-15T18:31:01.918Z,11.94
2022-09-15T18:36:27.259Z,11.87
2022-09-15T18:41:52.114Z,12.11
2022-09-15T18:47:14.870Z,11.94
2022-09-15T18:52:38.522Z,12.22
2022-09-15T18:58:01.303Z,12.21
2022-09-15T19:03:23.561Z,12.11
2022-09-15T19:08:45.522Z,12.17
2022-09-15T19:14:08.300Z,12.16
2022-09-15T19:19:30.570Z,11.88
2022-09-15T19:24:53.178Z,11.97
2022-09-15T19:30:15.839Z,12.09
2022-09-15T19:35:41.519Z,12.02
2022-09-15T19:41:09.860Z,12.10
2022-09-15T19:46:36.219Z,11.95
2022-09-15T19:51:58.388Z,11.67
2022-09-15T19:57:21.878Z,11.75
2022-09-15T20:02:49.073Z,11.59
2022-09-15T20:08:11.463Z,11.32
2022-09-15T20:13:33.970Z,11.48
2022-09-15T20:18:56.812Z,11.38
2022-09-15T20:24:20.110Z,11.13
2022-09-15T20:29:42.322Z,11.15
2022-09-15T20:35:06.470Z,10.96
2022-09-15T20:40:28.681Z,10.63
2022-09-15T20:46:05.735Z,10.63
2022-09-15T20:51:32.161Z,10.38
2022-09-15T20:56:54.901Z,10.35
2022-09-15T21:02:16.959Z,10.09
2022-09-15T21:07:39.412Z,9.91
2022-09-15T21:13:01.861Z,9.75
2022-09-15T21:18:28.521Z,9.94
2022-09-15T21:23:56.822Z,9.83
2022-09-15T21:29:19.012Z,9.64
2022-09-15T21:34:41.541Z,9.58
2022-09-15T21:40:04.961Z,9.54
2022-09-15T21:45:26.989Z,9.25
2022-09-15T21:50:53.498Z,9.53
2022-09-15T21:56:16.191Z,9.14
2022-09-15T22:01:38.330Z,9.53
2022-09-15T22:07:00.040Z,9.54
2022-09-15T22:12:22.240Z,9.42
2022-09-15T22:17:44.500Z,9.25
2022-09-15T22:23:06.711Z,9.31
2022-09-15T22:28:28.761Z,9.28
2022-09-15T22:33:50.640Z,9.25
2022-09-15T22:39:13.279Z,9.24
2022-09-15T22:44:35.422Z,9.22
2022-09-15T22:49:57.520Z,9.27
2022-09-15T22:55:19.842Z,9.23
2022-09-15T23:00:42.176Z,9.21
2022-09-15T23:06:04.641Z,9.18
2022-09-15T23:11:29.030Z,9.12
2022-09-15T23:16:51.320Z,9.27
2022-09-15T23:22:13.727Z,9.11
2022-09-15T23:27:38.370Z,8.76
2022-09-15T23:33:05.948Z,8.80
2022-09-15T23:38:28.818Z,9.18
2022-09-15T23:43:51.841Z,9.08
2022-09-15T23:49:18.476Z,9.07
2022-09-15T23:54:46.831Z,8.77
